Terminal Aerodrome Forecast
Issued by NWS Bismarck, ND

Home | Current Version | Previous Version | Graphics & Text | Print | Product List | Glossary On
Versions: 1 2 3 4 5 6 7 8 9 10 11 12 13 14
000
FTUS43 KBIS 300522
TAFISN
TAF
KISN 300522Z 3006/3106 26005KT P6SM BKN100
     FM301400 33012KT P6SM SKC
     FM302100 32012G22KT P6SM SKC
     FM310200 31005KT P6SM SKC=

USA.gov is the U.S. government's official web portal to all federal, state and local government web resources and services.